Time;durP1;ratioP1;P1;durP2;ratioP2;P2;SDS_P1;SDS_P2;PMS_P1;PMS_P2;Temp;Humidity;BMP_temperature;BMP_pressure;BME280_temperature;BME280_humidity;BME280_pressure;Samples;Min_cycle;Max_cycle;Signal;HPM_P1;HPM_P2
2019/09/29 00:00:17;;;;;;;4.3;2.5;;;;;;;;;;;;;
2019/09/29 00:02:42;;;;;;;6.8;2.9;;;;;;;;;;;;;
2019/09/29 00:05:07;;;;;;;5.9;2.9;;;;;;;;;;;;;
2019/09/29 00:07:32;;;;;;;5.6;2.9;;;;;;;;;;;;;
2019/09/29 00:09:57;;;;;;;5.6;2.9;;;;;;;;;;;;;
2019/09/29 00:12:22;;;;;;;5;2.7;;;;;;;;;;;;;
2019/09/29 00:14:47;;;;;;;6.4;3.2;;;;;;;;;;;;;
2019/09/29 00:17:12;;;;;;;4.5;2.6;;;;;;;;;;;;;
2019/09/29 00:19:37;;;;;;;5;2.5;;;;;;;;;;;;;
2019/09/29 00:22:02;;;;;;;4.7;2.7;;;;;;;;;;;;;
2019/09/29 00:24:27;;;;;;;4.8;2.7;;;;;;;;;;;;;
2019/09/29 00:26:52;;;;;;;4.8;2.6;;;;;;;;;;;;;
2019/09/29 00:29:18;;;;;;;4.5;2.7;;;;;;;;;;;;;
2019/09/29 00:31:43;;;;;;;5.6;2.4;;;;;;;;;;;;;
2019/09/29 00:34:08;;;;;;;4.7;2.4;;;;;;;;;;;;;
2019/09/29 00:36:33;;;;;;;5.7;2.7;;;;;;;;;;;;;
2019/09/29 00:38:58;;;;;;;3.7;2.4;;;;;;;;;;;;;
2019/09/29 00:41:23;;;;;;;4.1;2.5;;;;;;;;;;;;;
2019/09/29 00:43:48;;;;;;;4.9;2.4;;;;;;;;;;;;;
2019/09/29 00:46:13;;;;;;;5.3;2.6;;;;;;;;;;;;;
2019/09/29 00:48:38;;;;;;;4.7;2.6;;;;;;;;;;;;;
2019/09/29 00:51:03;;;;;;;5;2.5;;;;;;;;;;;;;
2019/09/29 00:53:28;;;;;;;5.6;2.6;;;;;;;;;;;;;
2019/09/29 00:55:54;;;;;;;4.8;2.5;;;;;;;;;;;;;
2019/09/29 00:58:19;;;;;;;6.5;2.2;;;;;;;;;;;;;
2019/09/29 01:00:44;;;;;;;4.4;2.2;;;;;;;;;;;;;
2019/09/29 01:03:09;;;;;;;6.7;2.7;;;;;;;;;;;;;
2019/09/29 01:05:34;;;;;;;5.6;2.2;;;;;;;;;;;;;
2019/09/29 01:07:59;;;;;;;4.4;2.3;;;;;;;;;;;;;
2019/09/29 01:10:24;;;;;;;4.9;2.3;;;;;;;;;;;;;
2019/09/29 01:12:49;;;;;;;3.9;2.5;;;;;;;;;;;;;
2019/09/29 01:15:14;;;;;;;6.9;2.5;;;;;;;;;;;;;
2019/09/29 01:17:39;;;;;;;5;2.2;;;;;;;;;;;;;
2019/09/29 01:20:05;;;;;;;6.2;2.7;;;;;;;;;;;;;
2019/09/29 01:25:02;;;;;;;3.6;2;;;;;;;;;;;;;
2019/09/29 01:27:24;;;;;;;5.1;2.4;;;;;;;;;;;;;
2019/09/29 01:29:45;;;;;;;4.8;2;;;;;;;;;;;;;
2019/09/29 01:32:10;;;;;;;5.3;2.2;;;;;;;;;;;;;
2019/09/29 01:34:35;;;;;;;5.5;2.1;;;;;;;;;;;;;
2019/09/29 01:37:00;;;;;;;6;2.1;;;;;;;;;;;;;
2019/09/29 01:39:25;;;;;;;4.1;1.9;;;;;;;;;;;;;
2019/09/29 01:41:51;;;;;;;4.4;2;;;;;;;;;;;;;
2019/09/29 01:44:16;;;;;;;4.4;2.1;;;;;;;;;;;;;
2019/09/29 01:46:41;;;;;;;4.8;2.1;;;;;;;;;;;;;
2019/09/29 01:49:06;;;;;;;4;1.9;;;;;;;;;;;;;
2019/09/29 01:51:31;;;;;;;4.9;1.9;;;;;;;;;;;;;
2019/09/29 01:53:56;;;;;;;4.7;1.7;;;;;;;;;;;;;
2019/09/29 01:56:21;;;;;;;4.5;2.1;;;;;;;;;;;;;
2019/09/29 01:58:46;;;;;;;3.9;1.6;;;;;;;;;;;;;
2019/09/29 02:01:12;;;;;;;4.3;1.9;;;;;;;;;;;;;
2019/09/29 02:03:37;;;;;;;4.1;1.7;;;;;;;;;;;;;
2019/09/29 02:06:02;;;;;;;4.3;2;;;;;;;;;;;;;
2019/09/29 02:08:27;;;;;;;2.9;1.7;;;;;;;;;;;;;
2019/09/29 02:10:52;;;;;;;4.2;1.8;;;;;;;;;;;;;
2019/09/29 02:13:17;;;;;;;6.5;1.8;;;;;;;;;;;;;
2019/09/29 02:15:42;;;;;;;5.1;1.7;;;;;;;;;;;;;
2019/09/29 02:18:07;;;;;;;4.3;1.7;;;;;;;;;;;;;
2019/09/29 02:20:33;;;;;;;4.3;1.5;;;;;;;;;;;;;
2019/09/29 02:22:58;;;;;;;5.2;1.9;;;;;;;;;;;;;
2019/09/29 02:25:23;;;;;;;4;1.6;;;;;;;;;;;;;
2019/09/29 02:27:49;;;;;;;4.4;1.9;;;;;;;;;;;;;
2019/09/29 02:30:14;;;;;;;3.6;1.7;;;;;;;;;;;;;
2019/09/29 02:32:39;;;;;;;3.2;1.6;;;;;;;;;;;;;
2019/09/29 02:35:04;;;;;;;2.9;1.4;;;;;;;;;;;;;
2019/09/29 02:37:29;;;;;;;4.8;1.4;;;;;;;;;;;;;
2019/09/29 02:39:54;;;;;;;5.2;1.5;;;;;;;;;;;;;
2019/09/29 02:42:19;;;;;;;3;1.5;;;;;;;;;;;;;
2019/09/29 02:44:44;;;;;;;3.3;1.5;;;;;;;;;;;;;
2019/09/29 02:47:09;;;;;;;3.9;1.7;;;;;;;;;;;;;
2019/09/29 02:49:34;;;;;;;3.7;1.6;;;;;;;;;;;;;
2019/09/29 02:52:00;;;;;;;3.8;1.5;;;;;;;;;;;;;
2019/09/29 02:54:25;;;;;;;3.8;1.6;;;;;;;;;;;;;
2019/09/29 02:56:50;;;;;;;3.8;1.7;;;;;;;;;;;;;
2019/09/29 02:59:15;;;;;;;3.2;1.6;;;;;;;;;;;;;
2019/09/29 03:01:40;;;;;;;3.2;1.5;;;;;;;;;;;;;
2019/09/29 03:04:05;;;;;;;3.5;1.6;;;;;;;;;;;;;
2019/09/29 03:06:30;;;;;;;4.6;1.5;;;;;;;;;;;;;
2019/09/29 03:08:55;;;;;;;4.3;1.5;;;;;;;;;;;;;
2019/09/29 03:11:20;;;;;;;4.7;2;;;;;;;;;;;;;
2019/09/29 03:13:45;;;;;;;5;1.5;;;;;;;;;;;;;
2019/09/29 03:16:10;;;;;;;4.7;1.4;;;;;;;;;;;;;
2019/09/29 03:18:36;;;;;;;4.1;1.4;;;;;;;;;;;;;
2019/09/29 03:21:01;;;;;;;4.7;1.6;;;;;;;;;;;;;
2019/09/29 03:23:26;;;;;;;3.9;1.6;;;;;;;;;;;;;
2019/09/29 03:26:02;;;;;;;3.2;1.5;;;;;;;;;;;;;
2019/09/29 03:28:27;;;;;;;3.4;1.4;;;;;;;;;;;;;
2019/09/29 03:30:52;;;;;;;4.3;1.6;;;;;;;;;;;;;
2019/09/29 03:33:17;;;;;;;3.7;1.4;;;;;;;;;;;;;
2019/09/29 03:35:42;;;;;;;3.5;1.4;;;;;;;;;;;;;
2019/09/29 03:38:08;;;;;;;3;1.6;;;;;;;;;;;;;
2019/09/29 03:40:33;;;;;;;3.7;1.5;;;;;;;;;;;;;
2019/09/29 03:42:58;;;;;;;4.3;1.4;;;;;;;;;;;;;
2019/09/29 03:45:23;;;;;;;4.3;1.5;;;;;;;;;;;;;
2019/09/29 03:47:48;;;;;;;4.2;1.5;;;;;;;;;;;;;
2019/09/29 03:50:13;;;;;;;4.4;1.5;;;;;;;;;;;;;
2019/09/29 03:52:38;;;;;;;4;1.7;;;;;;;;;;;;;
2019/09/29 03:55:03;;;;;;;3.3;1.5;;;;;;;;;;;;;
2019/09/29 03:57:28;;;;;;;3.8;1.5;;;;;;;;;;;;;
2019/09/29 03:59:53;;;;;;;4.6;1.6;;;;;;;;;;;;;
2019/09/29 04:02:28;;;;;;;6.4;1.8;;;;;;;12.25;86.41211;959.5081;;;;
2019/09/29 04:04:54;;;;;;;4.1;1.5;;;;;;;12.33;86.69336;959.465;;;;
2019/09/29 04:07:19;;;;;;;4.9;1.8;;;;;;;12.43;86.29883;959.4717;;;;
2019/09/29 04:09:44;;;;;;;4.9;1.7;;;;;;;12.37;86.13281;959.413;;;;
2019/09/29 04:12:09;;;;;;;4.3;1.5;;;;;;;12.48;85.60254;959.3278;;;;
2019/09/29 04:14:34;;;;;;;4.8;1.8;;;;;;;12.57;85.44531;959.2576;;;;
2019/09/29 04:16:59;;;;;;;5.1;1.4;;;;;;;12.42;85.91406;959.2119;;;;
2019/09/29 04:19:24;;;;;;;5.7;1.7;;;;;;;12.25;86.67773;959.2809;;;;
2019/09/29 04:21:49;;;;;;;5.1;1.9;;;;;;;12.17;87.67773;959.2953;;;;
2019/09/29 04:24:14;;;;;;;3.4;1.5;;;;;;;12.28;87.24902;959.2747;;;;
2019/09/29 04:26:39;;;;;;;5.4;1.7;;;;;;;12.36;86.52539;959.2717;;;;
2019/09/29 04:29:05;;;;;;;4.7;1.6;;;;;;;12.37;86.58496;959.2626;;;;
2019/09/29 04:31:30;;;;;;;4.7;1.7;;;;;;;12.31;85.19727;959.1859;;;;
2019/09/29 04:33:55;;;;;;;5.1;1.7;;;;;;;12.34;85.65527;959.2361;;;;
2019/09/29 04:36:20;;;;;;;4.5;1.5;;;;;;;12.5;85.55859;959.1864;;;;
2019/09/29 04:38:45;;;;;;;4;1.6;;;;;;;12.47;86.07324;959.1533;;;;
2019/09/29 04:41:10;;;;;;;3.8;1.5;;;;;;;12.48;86.27344;959.0499;;;;
2019/09/29 04:43:35;;;;;;;2.9;1.5;;;;;;;12.39;86.12695;958.9827;;;;
2019/09/29 04:46:00;;;;;;;3.8;1.5;;;;;;;12.33;87.04004;958.9615;;;;
2019/09/29 04:48:25;;;;;;;4.2;1.2;;;;;;;12.22;86.82227;958.9292;;;;
2019/09/29 04:50:50;;;;;;;5.6;1.6;;;;;;;12.15;87.77637;958.9481;;;;
2019/09/29 04:53:16;;;;;;;3.6;1.5;;;;;;;12.12;87.18262;958.9518;;;;
2019/09/29 04:55:41;;;;;;;3.3;1.5;;;;;;;12.17;86.30371;958.9114;;;;
2019/09/29 04:58:06;;;;;;;5.4;1.8;;;;;;;12.14;86.73535;958.8865;;;;
2019/09/29 05:00:31;;;;;;;3.2;1.2;;;;;;;12.2;87.22168;958.8292;;;;
2019/09/29 05:02:56;;;;;;;5.9;1.9;;;;;;;12.19;87.82031;958.848;;;;
2019/09/29 05:05:21;;;;;;;4.1;1.7;;;;;;;;;;;;;
2019/09/29 05:07:46;;;;;;;4.5;1.6;;;;;;;;;;;;;
2019/09/29 05:10:11;;;;;;;6.6;2.9;;;;;;;;;;;;;
2019/09/29 05:12:36;;;;;;;9.2;5.3;;;;;;;;;;;;;
2019/09/29 05:15:01;;;;;;;6.5;3.5;;;;;;;;;;;;;
2019/09/29 05:17:26;;;;;;;6;2.4;;;;;;;;;;;;;
2019/09/29 05:19:52;;;;;;;5.1;1.7;;;;;;;;;;;;;
2019/09/29 05:22:17;;;;;;;3.8;1.6;;;;;;;;;;;;;
2019/09/29 05:24:42;;;;;;;4.3;1.4;;;;;;;;;;;;;
2019/09/29 05:27:07;;;;;;;3.7;1.5;;;;;;;;;;;;;
2019/09/29 05:29:32;;;;;;;3.9;1.8;;;;;;;;;;;;;
2019/09/29 05:31:57;;;;;;;4.8;1.7;;;;;;;;;;;;;
2019/09/29 05:34:22;;;;;;;4.4;1.8;;;;;;;;;;;;;
2019/09/29 05:36:47;;;;;;;4.4;1.7;;;;;;;;;;;;;
2019/09/29 05:39:13;;;;;;;4.2;1.7;;;;;;;;;;;;;
2019/09/29 05:41:38;;;;;;;3.4;1.6;;;;;;;;;;;;;
2019/09/29 05:44:03;;;;;;;4;1.9;;;;;;;;;;;;;
2019/09/29 05:46:28;;;;;;;4.1;1.7;;;;;;;;;;;;;
2019/09/29 05:48:53;;;;;;;4.4;1.7;;;;;;;;;;;;;
2019/09/29 05:51:18;;;;;;;4.7;1.7;;;;;;;;;;;;;
2019/09/29 05:53:43;;;;;;;4.2;1.6;;;;;;;;;;;;;
2019/09/29 05:56:08;;;;;;;4.3;1.6;;;;;;;;;;;;;
2019/09/29 05:58:33;;;;;;;3.8;1.8;;;;;;;;;;;;;
2019/09/29 06:00:59;;;;;;;4.2;1.8;;;;;;;;;;;;;
2019/09/29 06:03:24;;;;;;;5.5;1.8;;;;;;;;;;;;;
2019/09/29 06:05:49;;;;;;;5.5;2.1;;;;;;;;;;;;;
2019/09/29 06:08:14;;;;;;;5.6;2.2;;;;;;;;;;;;;
2019/09/29 06:10:39;;;;;;;4.6;2;;;;;;;;;;;;;
2019/09/29 06:13:04;;;;;;;3.7;2;;;;;;;;;;;;;
2019/09/29 06:15:29;;;;;;;3.5;2;;;;;;;;;;;;;
2019/09/29 06:17:54;;;;;;;4.1;2;;;;;;;;;;;;;
2019/09/29 06:20:19;;;;;;;3.4;1.9;;;;;;;;;;;;;
2019/09/29 06:22:44;;;;;;;5.3;2;;;;;;;;;;;;;
2019/09/29 06:25:16;;;;;;;5.1;2.3;;;;;;;;;;;;;
2019/09/29 06:27:41;;;;;;;3.5;1.7;;;;;;;;;;;;;
2019/09/29 06:30:06;;;;;;;5.3;2.4;;;;;;;;;;;;;
2019/09/29 06:32:32;;;;;;;5.1;2;;;;;;;;;;;;;
2019/09/29 06:34:57;;;;;;;4.4;2.1;;;;;;;;;;;;;
2019/09/29 06:37:22;;;;;;;4;1.8;;;;;;;;;;;;;
2019/09/29 06:39:47;;;;;;;6.2;2;;;;;;;;;;;;;
2019/09/29 06:42:13;;;;;;;5;2.1;;;;;;;;;;;;;
2019/09/29 06:44:38;;;;;;;4.1;2.1;;;;;;;;;;;;;
2019/09/29 06:47:03;;;;;;;4.2;1.9;;;;;;;;;;;;;
2019/09/29 06:49:28;;;;;;;4.4;2.1;;;;;;;;;;;;;
2019/09/29 06:51:53;;;;;;;4.4;1.8;;;;;;;;;;;;;
2019/09/29 06:54:18;;;;;;;4.4;1.9;;;;;;;;;;;;;
2019/09/29 06:56:43;;;;;;;3.5;1.8;;;;;;;;;;;;;
2019/09/29 06:59:08;;;;;;;4.7;2.1;;;;;;;;;;;;;
2019/09/29 07:01:34;;;;;;;4.7;2.2;;;;;;;;;;;;;
2019/09/29 07:03:59;;;;;;;3.8;2.1;;;;;;;;;;;;;
2019/09/29 07:06:24;;;;;;;4.7;1.9;;;;;;;;;;;;;
2019/09/29 07:08:49;;;;;;;3.8;1.7;;;;;;;;;;;;;
2019/09/29 07:11:14;;;;;;;4.2;1.8;;;;;;;;;;;;;
2019/09/29 07:13:39;;;;;;;2.6;1.7;;;;;;;;;;;;;
2019/09/29 07:16:05;;;;;;;4.4;1.7;;;;;;;;;;;;;
2019/09/29 07:18:30;;;;;;;3.6;1.8;;;;;;;;;;;;;
2019/09/29 07:20:55;;;;;;;4.1;2;;;;;;;;;;;;;
2019/09/29 07:23:20;;;;;;;3.8;1.6;;;;;;;;;;;;;
2019/09/29 07:25:45;;;;;;;3.7;1.8;;;;;;;;;;;;;
2019/09/29 07:28:10;;;;;;;3.3;1.6;;;;;;;;;;;;;
2019/09/29 07:30:35;;;;;;;3.4;1.6;;;;;;;;;;;;;
2019/09/29 07:33:00;;;;;;;3.6;1.8;;;;;;;;;;;;;
2019/09/29 07:35:26;;;;;;;3.7;1.8;;;;;;;;;;;;;
2019/09/29 07:37:51;;;;;;;4;1.8;;;;;;;;;;;;;
2019/09/29 07:40:16;;;;;;;3.3;1.6;;;;;;;;;;;;;
2019/09/29 07:42:41;;;;;;;4.3;1.7;;;;;;;;;;;;;
2019/09/29 07:45:06;;;;;;;3.9;1.5;;;;;;;;;;;;;
2019/09/29 07:47:31;;;;;;;3.1;1.7;;;;;;;;;;;;;
2019/09/29 07:49:56;;;;;;;7.1;2.1;;;;;;;;;;;;;
2019/09/29 07:52:21;;;;;;;3.8;1.7;;;;;;;;;;;;;
2019/09/29 07:54:46;;;;;;;5.3;1.7;;;;;;;;;;;;;
2019/09/29 07:57:12;;;;;;;3.2;1.7;;;;;;;;;;;;;
2019/09/29 07:59:37;;;;;;;4.4;1.6;;;;;;;;;;;;;
2019/09/29 08:02:02;;;;;;;4.8;1.7;;;;;;;;;;;;;
2019/09/29 08:04:27;;;;;;;4.8;1.6;;;;;;;;;;;;;
2019/09/29 08:06:52;;;;;;;4.9;1.6;;;;;;;;;;;;;
2019/09/29 08:09:17;;;;;;;3.8;1.7;;;;;;;;;;;;;
2019/09/29 08:11:43;;;;;;;4.9;1.7;;;;;;;;;;;;;
2019/09/29 08:14:08;;;;;;;5.4;1.7;;;;;;;;;;;;;
2019/09/29 08:16:33;;;;;;;4.3;1.7;;;;;;;;;;;;;
2019/09/29 08:18:58;;;;;;;4.3;2.1;;;;;;;;;;;;;
2019/09/29 08:21:23;;;;;;;3.8;1.9;;;;;;;;;;;;;
2019/09/29 08:23:48;;;;;;;4.3;1.7;;;;;;;;;;;;;
2019/09/29 08:26:13;;;;;;;4.2;2;;;;;;;;;;;;;
2019/09/29 08:28:39;;;;;;;5.1;2.2;;;;;;;;;;;;;
2019/09/29 08:31:04;;;;;;;3.2;1.8;;;;;;;;;;;;;
2019/09/29 08:33:29;;;;;;;6.4;1.6;;;;;;;;;;;;;
2019/09/29 08:35:54;;;;;;;4.6;1.8;;;;;;;;;;;;;
2019/09/29 08:38:19;;;;;;;3.2;1.7;;;;;;;;;;;;;
2019/09/29 08:40:44;;;;;;;2.9;1.5;;;;;;;;;;;;;
2019/09/29 08:43:09;;;;;;;5.9;3.6;;;;;;;;;;;;;
2019/09/29 08:45:34;;;;;;;3.8;2.3;;;;;;;;;;;;;
2019/09/29 08:48:00;;;;;;;3.8;1.8;;;;;;;;;;;;;
2019/09/29 08:50:25;;;;;;;4.9;1.7;;;;;;;;;;;;;
2019/09/29 08:52:50;;;;;;;4;1.5;;;;;;;;;;;;;
2019/09/29 08:55:15;;;;;;;4.3;2.7;;;;;;;;;;;;;
2019/09/29 08:57:40;;;;;;;4.3;1.9;;;;;;;;;;;;;
2019/09/29 09:00:05;;;;;;;3.6;1.7;;;;;;;;;;;;;
2019/09/29 09:02:30;;;;;;;5.8;2.2;;;;;;;;;;;;;
2019/09/29 09:04:55;;;;;;;5;1.8;;;;;;;;;;;;;
2019/09/29 09:07:20;;;;;;;3.5;1.6;;;;;;;;;;;;;
2019/09/29 09:09:45;;;;;;;4.3;1.9;;;;;;;;;;;;;
2019/09/29 09:12:10;;;;;;;3.2;1.4;;;;;;;;;;;;;
2019/09/29 09:14:35;;;;;;;5.2;1.5;;;;;;;;;;;;;
2019/09/29 09:17:01;;;;;;;3.6;1.5;;;;;;;;;;;;;
2019/09/29 09:19:26;;;;;;;4.3;1.7;;;;;;;;;;;;;
2019/09/29 09:21:51;;;;;;;3.8;1.5;;;;;;;;;;;;;
2019/09/29 09:24:16;;;;;;;2.6;1.4;;;;;;;;;;;;;
2019/09/29 09:26:41;;;;;;;4.4;1.6;;;;;;;;;;;;;
2019/09/29 09:29:06;;;;;;;4;1.5;;;;;;;;;;;;;
2019/09/29 09:31:31;;;;;;;5.1;1.7;;;;;;;;;;;;;
2019/09/29 09:33:56;;;;;;;4.9;1.9;;;;;;;;;;;;;
2019/09/29 09:36:21;;;;;;;3.2;1.4;;;;;;;;;;;;;
2019/09/29 09:38:46;;;;;;;6.5;1.8;;;;;;;;;;;;;
2019/09/29 09:41:12;;;;;;;5.4;1.8;;;;;;;;;;;;;
2019/09/29 09:43:37;;;;;;;2.9;1.4;;;;;;;;;;;;;
2019/09/29 09:46:02;;;;;;;3.6;1.4;;;;;;;;;;;;;
2019/09/29 09:48:30;;;;;;;5;1.5;;;;;;;;;;;;;
2019/09/29 09:53:55;;;;;;;4.2;1.4;;;;;;;;;;;;;
2019/09/29 09:56:20;;;;;;;2.8;1.5;;;;;;;;;;;;;
2019/09/29 09:58:45;;;;;;;4;1.4;;;;;;;;;;;;;
2019/09/29 10:01:10;;;;;;;3.2;1.5;;;;;;;;;;;;;
2019/09/29 10:03:35;;;;;;;3.1;1.6;;;;;;;;;;;;;
2019/09/29 10:06:00;;;;;;;3.6;1.6;;;;;;;;;;;;;
2019/09/29 10:08:25;;;;;;;3.9;1.2;;;;;;;;;;;;;
2019/09/29 10:10:50;;;;;;;4.8;1.3;;;;;;;;;;;;;
2019/09/29 10:13:15;;;;;;;2.8;1.3;;;;;;;;;;;;;
2019/09/29 10:15:40;;;;;;;2.5;1.3;;;;;;;;;;;;;
2019/09/29 10:18:05;;;;;;;5.4;1.4;;;;;;;;;;;;;
2019/09/29 10:20:30;;;;;;;2.9;1.2;;;;;;;;;;;;;
2019/09/29 10:22:55;;;;;;;4;1.6;;;;;;;;;;;;;
2019/09/29 10:25:20;;;;;;;3.3;1.3;;;;;;;;;;;;;
2019/09/29 10:27:46;;;;;;;2.8;1.2;;;;;;;;;;;;;
2019/09/29 10:30:11;;;;;;;3.5;1.3;;;;;;;;;;;;;
2019/09/29 10:32:36;;;;;;;3.6;1.6;;;;;;;;;;;;;
2019/09/29 10:35:01;;;;;;;5.2;1.7;;;;;;;;;;;;;
2019/09/29 10:37:26;;;;;;;3.4;1.4;;;;;;;;;;;;;
2019/09/29 10:39:51;;;;;;;4;1.6;;;;;;;;;;;;;
2019/09/29 10:42:16;;;;;;;4.7;1.5;;;;;;;;;;;;;
2019/09/29 10:44:41;;;;;;;2.8;1.2;;;;;;;;;;;;;
2019/09/29 10:47:06;;;;;;;2.7;1.2;;;;;;;;;;;;;
2019/09/29 10:49:32;;;;;;;3.1;1.3;;;;;;;;;;;;;
2019/09/29 10:51:57;;;;;;;2.4;1.3;;;;;;;;;;;;;
2019/09/29 10:54:22;;;;;;;4.1;1.2;;;;;;;;;;;;;
2019/09/29 10:56:47;;;;;;;3;1.2;;;;;;;;;;;;;
2019/09/29 10:59:12;;;;;;;4.2;1.4;;;;;;;;;;;;;
2019/09/29 11:01:37;;;;;;;5.9;1.3;;;;;;;;;;;;;
2019/09/29 11:04:02;;;;;;;4.6;1.2;;;;;;;;;;;;;
2019/09/29 11:06:27;;;;;;;3.1;1.4;;;;;;;;;;;;;
2019/09/29 11:08:52;;;;;;;4.7;1.4;;;;;;;;;;;;;
2019/09/29 11:11:18;;;;;;;2.9;1.5;;;;;;;;;;;;;
2019/09/29 11:13:43;;;;;;;3.1;1.4;;;;;;;;;;;;;
2019/09/29 11:16:08;;;;;;;4.4;1.3;;;;;;;;;;;;;
2019/09/29 11:18:33;;;;;;;3.1;1.3;;;;;;;;;;;;;
2019/09/29 11:20:58;;;;;;;3.8;1.5;;;;;;;;;;;;;
2019/09/29 11:23:23;;;;;;;2.4;1.2;;;;;;;;;;;;;
2019/09/29 11:25:48;;;;;;;3.8;1.3;;;;;;;;;;;;;
2019/09/29 11:28:14;;;;;;;2.7;1.2;;;;;;;;;;;;;
2019/09/29 11:30:39;;;;;;;4.6;1.9;;;;;;;;;;;;;
2019/09/29 11:33:04;;;;;;;4.2;1.6;;;;;;;;;;;;;
2019/09/29 11:35:29;;;;;;;3;1.4;;;;;;;;;;;;;
2019/09/29 11:37:55;;;;;;;4.1;1.2;;;;;;;;;;;;;
2019/09/29 11:40:20;;;;;;;3.3;1.3;;;;;;;;;;;;;
2019/09/29 11:42:45;;;;;;;3.4;1.3;;;;;;;;;;;;;
2019/09/29 11:45:10;;;;;;;2.8;1.5;;;;;;;;;;;;;
2019/09/29 11:47:35;;;;;;;2.4;1.2;;;;;;;;;;;;;
2019/09/29 11:50:00;;;;;;;3.1;1.3;;;;;;;;;;;;;
2019/09/29 11:52:25;;;;;;;2.5;1.1;;;;;;;;;;;;;
2019/09/29 11:54:51;;;;;;;3.4;1.2;;;;;;;;;;;;;
2019/09/29 11:57:16;;;;;;;1.9;1;;;;;;;;;;;;;
2019/09/29 11:59:41;;;;;;;3.5;1.5;;;;;;;;;;;;;
2019/09/29 12:02:06;;;;;;;3.5;1.6;;;;;;;;;;;;;
2019/09/29 12:04:31;;;;;;;3.5;1.7;;;;;;;;;;;;;
2019/09/29 12:06:56;;;;;;;3.8;2.1;;;;;;;;;;;;;
2019/09/29 12:09:21;;;;;;;3;1.7;;;;;;;;;;;;;
2019/09/29 12:11:46;;;;;;;2.9;1.2;;;;;;;;;;;;;
2019/09/29 12:14:12;;;;;;;2.7;1;;;;;;;;;;;;;
2019/09/29 12:16:37;;;;;;;4.5;1.4;;;;;;;;;;;;;
2019/09/29 12:19:02;;;;;;;4.7;1.3;;;;;;;;;;;;;
2019/09/29 12:21:27;;;;;;;2.5;1.3;;;;;;;;;;;;;
2019/09/29 12:23:52;;;;;;;3.4;1;;;;;;;;;;;;;
2019/09/29 12:26:17;;;;;;;3.1;1.3;;;;;;;;;;;;;
2019/09/29 12:28:42;;;;;;;1.9;1.1;;;;;;;;;;;;;
2019/09/29 12:31:07;;;;;;;2.1;1.2;;;;;;;;;;;;;
2019/09/29 12:33:33;;;;;;;3.8;1.3;;;;;;;;;;;;;
2019/09/29 12:35:58;;;;;;;2.9;1.4;;;;;;;;;;;;;
2019/09/29 12:38:23;;;;;;;2.9;1.2;;;;;;;;;;;;;
2019/09/29 12:40:48;;;;;;;3.2;1.3;;;;;;;;;;;;;
2019/09/29 12:43:13;;;;;;;2.7;0.9;;;;;;;;;;;;;
2019/09/29 12:45:38;;;;;;;1.7;1;;;;;;;;;;;;;
2019/09/29 12:48:03;;;;;;;3.6;1.1;;;;;;;;;;;;;
2019/09/29 12:50:28;;;;;;;2.9;0.9;;;;;;;;;;;;;
2019/09/29 12:52:53;;;;;;;3.1;1;;;;;;;;;;;;;
2019/09/29 12:55:18;;;;;;;3.2;1.3;;;;;;;;;;;;;
2019/09/29 12:57:43;;;;;;;2.6;1.1;;;;;;;;;;;;;
2019/09/29 13:00:08;;;;;;;2.8;1.1;;;;;;;;;;;;;
2019/09/29 13:02:33;;;;;;;3.3;1.1;;;;;;;;;;;;;
2019/09/29 13:04:59;;;;;;;1.9;0.9;;;;;;;;;;;;;
2019/09/29 13:07:24;;;;;;;2.5;1.2;;;;;;;;;;;;;
2019/09/29 13:09:49;;;;;;;2.3;1.1;;;;;;;;;;;;;
2019/09/29 13:12:14;;;;;;;4.2;1.6;;;;;;;;;;;;;
2019/09/29 13:17:04;;;;;;;2;1;;;;;;;;;;;;;
2019/09/29 13:19:29;;;;;;;2.9;1;;;;;;;;;;;;;
2019/09/29 13:21:54;;;;;;;2.1;0.9;;;;;;;;;;;;;
2019/09/29 13:24:20;;;;;;;2.1;1;;;;;;;;;;;;;
2019/09/29 13:26:45;;;;;;;1.9;1;;;;;;;;;;;;;
2019/09/29 13:29:10;;;;;;;2.9;0.9;;;;;;;;;;;;;
2019/09/29 13:31:35;;;;;;;2.3;1;;;;;;;;;;;;;
2019/09/29 13:34:00;;;;;;;2;1;;;;;;;;;;;;;
2019/09/29 13:36:25;;;;;;;4.7;1;;;;;;;;;;;;;
2019/09/29 13:38:50;;;;;;;2.2;0.9;;;;;;;;;;;;;
2019/09/29 13:41:16;;;;;;;2.7;0.9;;;;;;;;;;;;;
2019/09/29 13:43:41;;;;;;;3;0.9;;;;;;;;;;;;;
2019/09/29 13:46:06;;;;;;;1.6;1;;;;;;;;;;;;;
2019/09/29 13:48:31;;;;;;;2.3;1.1;;;;;;;;;;;;;
2019/09/29 13:50:56;;;;;;;1.7;0.9;;;;;;;;;;;;;
2019/09/29 13:53:21;;;;;;;1.8;1;;;;;;;;;;;;;
2019/09/29 13:55:46;;;;;;;2.3;0.9;;;;;;;;;;;;;
2019/09/29 13:58:12;;;;;;;2.2;0.8;;;;;;;;;;;;;
2019/09/29 14:00:37;;;;;;;1.3;0.8;;;;;;;;;;;;;
2019/09/29 14:03:02;;;;;;;3;0.8;;;;;;;;;;;;;
2019/09/29 14:05:27;;;;;;;1.3;0.8;;;;;;;;;;;;;
2019/09/29 14:07:52;;;;;;;2.4;1;;;;;;;;;;;;;
2019/09/29 14:10:17;;;;;;;2.4;0.9;;;;;;;;;;;;;
2019/09/29 14:12:42;;;;;;;1.2;0.8;;;;;;;;;;;;;
2019/09/29 14:15:07;;;;;;;2.7;1;;;;;;;;;;;;;
2019/09/29 14:17:32;;;;;;;2.1;0.7;;;;;;;;;;;;;
2019/09/29 14:19:57;;;;;;;1.9;0.9;;;;;;;;;;;;;
2019/09/29 14:22:23;;;;;;;1.3;0.7;;;;;;;;;;;;;
2019/09/29 14:24:48;;;;;;;2.9;0.9;;;;;;;;;;;;;
2019/09/29 14:27:13;;;;;;;2.4;0.9;;;;;;;;;;;;;
2019/09/29 14:29:38;;;;;;;2.3;0.8;;;;;;;;;;;;;
2019/09/29 14:32:03;;;;;;;3.3;0.9;;;;;;;;;;;;;
2019/09/29 14:34:28;;;;;;;2.8;1.1;;;;;;;;;;;;;
2019/09/29 14:36:53;;;;;;;2;0.9;;;;;;;;;;;;;
2019/09/29 14:39:18;;;;;;;2.2;0.8;;;;;;;;;;;;;
2019/09/29 14:41:43;;;;;;;1.9;0.8;;;;;;;;;;;;;
2019/09/29 14:44:09;;;;;;;1.2;0.8;;;;;;;;;;;;;
2019/09/29 14:46:34;;;;;;;1.8;0.9;;;;;;;;;;;;;
2019/09/29 14:48:59;;;;;;;3.1;1.1;;;;;;;;;;;;;
2019/09/29 14:51:24;;;;;;;2;0.9;;;;;;;;;;;;;
2019/09/29 14:53:49;;;;;;;1.6;0.8;;;;;;;;;;;;;
2019/09/29 14:56:14;;;;;;;2.3;1.1;;;;;;;;;;;;;
2019/09/29 14:58:40;;;;;;;2;0.8;;;;;;;;;;;;;
2019/09/29 15:01:05;;;;;;;3.2;0.9;;;;;;;;;;;;;
2019/09/29 15:03:30;;;;;;;1.5;0.9;;;;;;;;;;;;;
2019/09/29 15:05:55;;;;;;;2.3;0.9;;;;;;;;;;;;;
2019/09/29 15:08:20;;;;;;;2.5;1;;;;;;;;;;;;;
2019/09/29 15:10:45;;;;;;;1.8;0.9;;;;;;;;;;;;;
2019/09/29 15:13:10;;;;;;;2.3;1;;;;;;;;;;;;;
2019/09/29 15:15:35;;;;;;;3;1.1;;;;;;;;;;;;;
2019/09/29 15:18:00;;;;;;;2.9;0.9;;;;;;;;;;;;;
2019/09/29 15:20:26;;;;;;;2.3;0.9;;;;;;;;;;;;;
2019/09/29 15:22:51;;;;;;;2.1;0.9;;;;;;;;;;;;;
2019/09/29 15:25:16;;;;;;;2.6;0.9;;;;;;;;;;;;;
2019/09/29 15:27:41;;;;;;;2.2;1;;;;;;;;;;;;;
2019/09/29 15:30:06;;;;;;;3.3;1.2;;;;;;;;;;;;;
2019/09/29 15:32:31;;;;;;;4.4;1.2;;;;;;;;;;;;;
2019/09/29 15:34:56;;;;;;;2.5;1.1;;;;;;;;;;;;;
2019/09/29 15:37:22;;;;;;;1.5;1;;;;;;;;;;;;;
2019/09/29 15:39:47;;;;;;;2;1.1;;;;;;;;;;;;;
2019/09/29 15:42:12;;;;;;;2.2;1.1;;;;;;;;;;;;;
2019/09/29 15:44:37;;;;;;;2.7;1;;;;;;;;;;;;;
2019/09/29 15:47:02;;;;;;;2.6;1;;;;;;;;;;;;;
2019/09/29 15:49:27;;;;;;;3.5;1.1;;;;;;;;;;;;;
2019/09/29 15:51:53;;;;;;;2.3;1.2;;;;;;;;;;;;;
2019/09/29 15:54:18;;;;;;;3.7;1.4;;;;;;;;;;;;;
2019/09/29 15:56:43;;;;;;;2;1.2;;;;;;;;;;;;;
2019/09/29 15:59:08;;;;;;;2.1;1.1;;;;;;;;;;;;;
2019/09/29 16:01:33;;;;;;;3.1;1.3;;;;;;;;;;;;;
2019/09/29 16:03:58;;;;;;;2;1.2;;;;;;;;;;;;;
2019/09/29 16:06:23;;;;;;;2.1;1.1;;;;;;;;;;;;;
2019/09/29 16:08:48;;;;;;;2.5;1.1;;;;;;;;;;;;;
2019/09/29 16:11:14;;;;;;;1.8;1.1;;;;;;;;;;;;;
2019/09/29 16:13:39;;;;;;;2.7;0.9;;;;;;;;;;;;;
2019/09/29 16:16:04;;;;;;;1.7;1.2;;;;;;;;;;;;;
2019/09/29 16:18:29;;;;;;;1.9;1.1;;;;;;;;;;;;;
2019/09/29 16:20:54;;;;;;;2.9;1.2;;;;;;;;;;;;;
2019/09/29 16:23:19;;;;;;;2.5;1.3;;;;;;;;;;;;;
2019/09/29 16:25:44;;;;;;;3.8;1.4;;;;;;;;;;;;;
2019/09/29 16:28:09;;;;;;;3.8;1;;;;;;;;;;;;;
2019/09/29 16:30:34;;;;;;;3.7;1.2;;;;;;;;;;;;;
2019/09/29 16:32:59;;;;;;;2.1;1.3;;;;;;;;;;;;;
2019/09/29 16:35:24;;;;;;;3.3;1.2;;;;;;;;;;;;;
2019/09/29 16:37:50;;;;;;;2.2;1.1;;;;;;;;;;;;;
2019/09/29 16:40:15;;;;;;;2.7;1.2;;;;;;;;;;;;;
2019/09/29 16:42:40;;;;;;;2;1.1;;;;;;;;;;;;;
2019/09/29 16:45:05;;;;;;;3;1;;;;;;;;;;;;;
2019/09/29 16:47:30;;;;;;;2.5;1.2;;;;;;;;;;;;;
2019/09/29 16:49:55;;;;;;;1.9;1.1;;;;;;;;;;;;;
2019/09/29 16:52:20;;;;;;;2.2;1.3;;;;;;;;;;;;;
2019/09/29 16:54:45;;;;;;;3;1.2;;;;;;;;;;;;;
2019/09/29 16:57:10;;;;;;;4;1.3;;;;;;;;;;;;;
2019/09/29 16:59:35;;;;;;;2.8;1.6;;;;;;;;;;;;;
2019/09/29 17:02:00;;;;;;;3.4;1.2;;;;;;;;;;;;;
2019/09/29 17:04:26;;;;;;;2.1;1.2;;;;;;;;;;;;;
2019/09/29 17:06:51;;;;;;;2.9;1.4;;;;;;;;;;;;;
2019/09/29 17:09:16;;;;;;;2.9;1.3;;;;;;;;;;;;;
2019/09/29 17:11:41;;;;;;;3.1;1.9;;;;;;;;;;;;;
2019/09/29 17:14:06;;;;;;;3;1.5;;;;;;;;;;;;;
2019/09/29 17:16:31;;;;;;;3.5;1.8;;;;;;;;;;;;;
2019/09/29 17:18:56;;;;;;;3.6;1.6;;;;;;;;;;;;;
2019/09/29 17:21:21;;;;;;;2.9;1.4;;;;;;;;;;;;;
2019/09/29 17:23:46;;;;;;;3.2;1.8;;;;;;;;;;;;;
2019/09/29 17:26:12;;;;;;;3.5;1.7;;;;;;;;;;;;;
2019/09/29 17:28:37;;;;;;;4.5;1.7;;;;;;;;;;;;;
2019/09/29 17:31:02;;;;;;;4.1;1.7;;;;;;;;;;;;;
2019/09/29 17:33:27;;;;;;;3.5;1.9;;;;;;;;;;;;;
2019/09/29 17:35:52;;;;;;;6.2;1.8;;;;;;;;;;;;;
2019/09/29 17:38:17;;;;;;;3.9;1.7;;;;;;;;;;;;;
2019/09/29 17:40:42;;;;;;;2.8;1.4;;;;;;;;;;;;;
2019/09/29 17:43:07;;;;;;;3.8;1.8;;;;;;;;;;;;;
2019/09/29 17:47:57;;;;;;;3.3;1.6;;;;;;;;;;;;;
2019/09/29 17:50:23;;;;;;;3.3;1.4;;;;;;;;;;;;;
2019/09/29 17:52:48;;;;;;;2.7;1.5;;;;;;;;;;;;;
2019/09/29 17:55:13;;;;;;;2.5;1.4;;;;;;;;;;;;;
2019/09/29 17:57:38;;;;;;;3.3;1.6;;;;;;;;;;;;;
2019/09/29 18:00:03;;;;;;;3;1.7;;;;;;;;;;;;;
2019/09/29 18:02:28;;;;;;;4.2;1.5;;;;;;;;;;;;;
2019/09/29 18:04:53;;;;;;;3.8;1.3;;;;;;;;;;;;;
2019/09/29 18:07:18;;;;;;;2.3;1.6;;;;;;;;;;;;;
2019/09/29 18:09:43;;;;;;;4.1;1.7;;;;;;;;;;;;;
2019/09/29 18:12:08;;;;;;;4.7;1.6;;;;;;;;;;;;;
2019/09/29 18:14:33;;;;;;;3.9;2;;;;;;;;;;;;;
2019/09/29 18:16:58;;;;;;;3.8;2.6;;;;;;;;;;;;;
2019/09/29 18:19:24;;;;;;;2.9;1.9;;;;;;;;;;;;;
2019/09/29 18:21:49;;;;;;;4.8;2.3;;;;;;;;;;;;;
2019/09/29 18:24:14;;;;;;;2.9;2.1;;;;;;;;;;;;;
2019/09/29 18:26:39;;;;;;;3.7;2.5;;;;;;;;;;;;;
2019/09/29 18:29:04;;;;;;;4.3;3;;;;;;;;;;;;;
2019/09/29 18:31:29;;;;;;;5;2.2;;;;;;;;;;;;;
2019/09/29 18:33:54;;;;;;;4.3;2.3;;;;;;;;;;;;;
2019/09/29 18:36:19;;;;;;;4.8;2.2;;;;;;;;;;;;;
2019/09/29 18:38:44;;;;;;;3.7;1.7;;;;;;;;;;;;;
2019/09/29 18:41:09;;;;;;;2.5;1.6;;;;;;;;;;;;;
2019/09/29 18:43:34;;;;;;;3.2;1.6;;;;;;;;;;;;;
2019/09/29 18:45:59;;;;;;;4.3;2;;;;;;;;;;;;;
2019/09/29 18:48:25;;;;;;;3.5;1.7;;;;;;;;;;;;;
2019/09/29 18:50:50;;;;;;;3.8;1.6;;;;;;;;;;;;;
2019/09/29 18:53:15;;;;;;;4;1.6;;;;;;;;;;;;;
2019/09/29 18:55:40;;;;;;;5.7;1.6;;;;;;;;;;;;;
2019/09/29 18:58:05;;;;;;;3;1.8;;;;;;;;;;;;;
2019/09/29 19:00:30;;;;;;;4.1;1.7;;;;;;;;;;;;;
2019/09/29 19:02:55;;;;;;;3.8;1.6;;;;;;;;;;;;;
2019/09/29 19:05:20;;;;;;;5.1;1.6;;;;;;;;;;;;;
2019/09/29 19:07:45;;;;;;;3.6;1.3;;;;;;;;;;;;;
2019/09/29 19:10:10;;;;;;;3.1;1.4;;;;;;;;;;;;;
2019/09/29 19:12:35;;;;;;;3.8;1.6;;;;;;;;;;;;;
2019/09/29 19:15:00;;;;;;;2.6;1.3;;;;;;;;;;;;;
2019/09/29 19:17:25;;;;;;;2.4;1.3;;;;;;;;;;;;;
2019/09/29 19:19:51;;;;;;;4.5;1.5;;;;;;;;;;;;;
2019/09/29 19:22:16;;;;;;;3.4;1.1;;;;;;;;;;;;;
2019/09/29 19:24:41;;;;;;;3.8;1.7;;;;;;;;;;;;;
2019/09/29 19:27:06;;;;;;;4.4;2.9;;;;;;;;;;;;;
2019/09/29 19:29:31;;;;;;;5.4;2.7;;;;;;;;;;;;;
2019/09/29 19:31:56;;;;;;;2.9;1.6;;;;;;;;;;;;;
2019/09/29 19:34:21;;;;;;;2.6;1.1;;;;;;;;;;;;;
2019/09/29 19:36:46;;;;;;;3.1;1.2;;;;;;;;;;;;;
2019/09/29 19:39:11;;;;;;;2.9;1.2;;;;;;;;;;;;;
2019/09/29 19:41:36;;;;;;;2.7;1.3;;;;;;;;;;;;;
2019/09/29 19:44:01;;;;;;;3.1;1.3;;;;;;;;;;;;;
2019/09/29 19:46:27;;;;;;;3.1;1.5;;;;;;;;;;;;;
2019/09/29 19:48:52;;;;;;;2.6;1.3;;;;;;;;;;;;;
2019/09/29 19:51:17;;;;;;;4.3;2.4;;;;;;;;;;;;;
2019/09/29 19:53:42;;;;;;;3.9;1.5;;;;;;;;;;;;;
2019/09/29 19:56:07;;;;;;;3.5;1.5;;;;;;;;;;;;;
2019/09/29 19:58:32;;;;;;;3.9;1.3;;;;;;;;;;;;;
2019/09/29 20:00:57;;;;;;;2.8;1.3;;;;;;;;;;;;;
2019/09/29 20:03:22;;;;;;;3.8;1.3;;;;;;;;;;;;;
2019/09/29 20:05:47;;;;;;;4.3;1.5;;;;;;;;;;;;;
2019/09/29 20:08:13;;;;;;;1.6;1.2;;;;;;;;;;;;;
2019/09/29 20:10:38;;;;;;;3;1.6;;;;;;;;;;;;;
2019/09/29 20:13:03;;;;;;;2.9;1.6;;;;;;;;;;;;;